createdAt,value
2018-05-13T00:00:53.204Z,44.62
2018-05-13T00:01:53.214Z,44.9
2018-05-13T00:02:53.259Z,44.98
2018-05-13T00:03:53.279Z,44.79
2018-05-13T00:04:53.298Z,45.1
2018-05-13T00:05:53.048Z,44.98
2018-05-13T00:06:53.353Z,45
2018-05-13T00:07:53.376Z,44.98
2018-05-13T00:08:53.384Z,45.07
2018-05-13T00:09:53.417Z,44.98
2018-05-13T00:10:53.515Z,44.89
2018-05-13T00:11:53.473Z,45.17
2018-05-13T00:12:53.480Z,45.17
2018-05-13T00:13:53.229Z,45.46
2018-05-13T00:14:53.265Z,45.56
2018-05-13T00:15:53.563Z,45.46
2018-05-13T00:16:53.302Z,45.46
2018-05-13T00:17:53.622Z,45.65
2018-05-13T00:18:53.630Z,45.36
2018-05-13T00:19:53.376Z,45.56
2018-05-13T00:20:53.678Z,45.46
2018-05-13T00:21:53.691Z,45.56
2018-05-13T00:22:53.717Z,45.56
2018-05-13T00:23:53.736Z,45.65
2018-05-13T00:24:53.766Z,45.56
2018-05-13T00:25:53.795Z,45.65
2018-05-13T00:26:53.824Z,45.46
2018-05-13T00:27:53.857Z,45.56
2018-05-13T00:28:53.862Z,45.65
2018-05-13T00:29:53.878Z,45.94
2018-05-13T00:30:53.900Z,45.94
2018-05-13T00:31:53.934Z,46.23
2018-05-13T00:32:53.689Z,46.14
2018-05-13T00:33:53.970Z,46.04
2018-05-13T00:34:53.740Z,46.14
2018-05-13T00:35:54.026Z,46.31
2018-05-13T00:36:54.052Z,46.31
2018-05-13T00:37:54.071Z,46.42
2018-05-13T00:38:54.106Z,46.31
2018-05-13T00:39:53.918Z,46.11
2018-05-13T00:40:53.872Z,46.5
2018-05-13T00:41:54.166Z,46.78
2018-05-13T00:42:54.190Z,46.5
2018-05-13T00:43:54.219Z,46.59
2018-05-13T00:44:54.229Z,46.59
2018-05-13T00:45:54.260Z,46.59
2018-05-13T00:46:54.002Z,46.11
2018-05-13T00:47:54.289Z,46.4
2018-05-13T00:48:54.375Z,46.59
2018-05-13T00:49:54.359Z,46.69
2018-05-13T00:50:54.362Z,46.59
2018-05-13T00:51:54.385Z,46.69
2018-05-13T00:52:54.409Z,46.59
2018-05-13T00:53:54.456Z,46.5
2018-05-13T00:54:54.455Z,47.08
2018-05-13T00:55:54.500Z,46.98
2018-05-13T00:56:54.503Z,46.78
2018-05-13T00:57:54.552Z,47.08
2018-05-13T00:58:54.279Z,46.88
2018-05-13T00:59:54.569Z,47.17
2018-05-13T01:00:54.609Z,46.88
2018-05-13T01:01:54.622Z,46.78
2018-05-13T01:02:54.796Z,47.08
2018-05-13T01:03:54.687Z,46.88
2018-05-13T01:04:54.687Z,47.27
2018-05-13T01:05:54.727Z,47.56
2018-05-13T01:06:54.750Z,46.88
2018-05-13T01:07:54.769Z,47.15
2018-05-13T01:08:54.791Z,47.36
2018-05-13T01:09:54.823Z,47.27
2018-05-13T01:10:54.570Z,47.44
2018-05-13T01:11:54.588Z,47.17
2018-05-13T01:12:54.877Z,47.05
2018-05-13T01:13:54.895Z,47.34
2018-05-13T01:14:54.925Z,47.75
2018-05-13T01:15:54.935Z,47.34
2018-05-13T01:16:54.965Z,47.15
2018-05-13T01:17:54.716Z,47.24
2018-05-13T01:18:55.030Z,47.15
2018-05-13T01:19:55.038Z,47.05
2018-05-13T01:20:55.059Z,47.44
2018-05-13T01:21:54.825Z,47.34
2018-05-13T01:22:55.101Z,47.15
2018-05-13T01:23:55.134Z,47.53
2018-05-13T01:24:55.157Z,47.92
2018-05-13T01:25:54.914Z,47.53
2018-05-13T01:26:55.207Z,47.53
2018-05-13T01:27:55.227Z,48.02
2018-05-13T01:28:55.246Z,47.72
2018-05-13T01:29:55.279Z,47.92
2018-05-13T01:30:55.282Z,47.72
2018-05-13T01:31:55.327Z,47.72
2018-05-13T01:32:55.331Z,47.92
2018-05-13T01:33:55.088Z,48.4
2018-05-13T01:34:55.383Z,48.21
2018-05-13T01:35:55.470Z,48.21
2018-05-13T01:36:55.436Z,48.4
2018-05-13T01:37:55.460Z,48.02
2018-05-13T01:38:55.463Z,48.02
2018-05-13T01:39:55.513Z,48.21
2018-05-13T01:40:55.509Z,48.11
2018-05-13T01:41:55.279Z,48.3
2018-05-13T01:42:55.302Z,48.02
2018-05-13T01:43:55.313Z,48.4
2018-05-13T01:44:55.619Z,48.3
2018-05-13T01:45:55.643Z,48.21
2018-05-13T01:46:55.666Z,48.21
2018-05-13T01:47:55.678Z,48.11
2018-05-13T01:48:55.710Z,48.49
2018-05-13T01:49:55.731Z,48.11
2018-05-13T01:50:55.753Z,48.3
2018-05-13T01:51:55.765Z,48.49
2018-05-13T01:52:55.782Z,48.49
2018-05-13T01:53:55.826Z,48.69
2018-05-13T01:54:55.576Z,48.69
2018-05-13T01:55:55.873Z,48.57
2018-05-13T01:56:55.875Z,48.69
2018-05-13T01:57:55.642Z,48.69
2018-05-13T01:58:55.926Z,48.57
2018-05-13T01:59:55.956Z,48.49
2018-05-13T02:00:55.966Z,48.76
2018-05-13T02:01:55.989Z,48.57
2018-05-13T02:02:55.743Z,48.47
2018-05-13T02:03:56.032Z,48.38
2018-05-13T02:04:55.787Z,48.57
2018-05-13T02:05:56.078Z,48.47
2018-05-13T02:06:55.848Z,48.47
2018-05-13T02:07:56.127Z,48.95
2018-05-13T02:08:56.150Z,48.95
2018-05-13T02:09:56.210Z,48.38
2018-05-13T02:10:56.188Z,48.76
2018-05-13T02:11:56.240Z,48.66
2018-05-13T02:12:56.253Z,48.76
2018-05-13T02:13:55.989Z,48.95
2018-05-13T02:14:56.295Z,48.95
2018-05-13T02:15:56.326Z,48.85
2018-05-13T02:16:56.324Z,49.33
2018-05-13T02:17:56.362Z,49.24
2018-05-13T02:18:56.186Z,48.76
2018-05-13T02:19:56.393Z,49.15
2018-05-13T02:20:56.423Z,48.95
2018-05-13T02:21:56.459Z,48.95
2018-05-13T02:22:56.473Z,48.85
2018-05-13T02:23:56.222Z,49.24
2018-05-13T02:24:56.510Z,49.15
2018-05-13T02:25:56.546Z,49.05
2018-05-13T02:26:56.560Z,48.95
2018-05-13T02:27:56.592Z,48.66
2018-05-13T02:28:56.603Z,49.05
2018-05-13T02:29:56.618Z,49.72
2018-05-13T02:30:56.670Z,48.95
2018-05-13T02:31:56.681Z,49.15
2018-05-13T02:32:56.691Z,48.76
2018-05-13T02:33:56.728Z,48.76
2018-05-13T02:34:56.745Z,49.24
2018-05-13T02:35:56.778Z,49.41
2018-05-13T02:36:56.777Z,49.41
2018-05-13T02:37:56.807Z,49.15
2018-05-13T02:38:56.555Z,48.83
2018-05-13T02:39:56.573Z,48.74
2018-05-13T02:40:56.602Z,48.74
2018-05-13T02:41:56.904Z,48.45
2018-05-13T02:42:56.910Z,48.45
2018-05-13T02:43:56.724Z,48.64
2018-05-13T02:44:56.970Z,48.83
2018-05-13T02:45:56.707Z,48.76
2018-05-13T02:46:56.745Z,48.74
2018-05-13T02:47:57.031Z,49.02
2018-05-13T02:48:56.788Z,48.93
2018-05-13T02:49:57.086Z,48.93
2018-05-13T02:50:57.085Z,48.74
2018-05-13T02:51:57.129Z,48.93
2018-05-13T02:52:57.144Z,48.74
2018-05-13T02:53:57.286Z,49.22
2018-05-13T02:54:56.918Z,48.64
2018-05-13T02:55:57.204Z,49.12
2018-05-13T02:56:57.235Z,49.51
2018-05-13T02:57:57.241Z,48.93
2018-05-13T02:58:57.287Z,49.12
2018-05-13T02:59:57.287Z,49.02
2018-05-13T03:00:57.054Z,49.22
2018-05-13T03:01:57.421Z,49.12
2018-05-13T03:02:57.373Z,49.6
2018-05-13T03:03:57.393Z,49.31
2018-05-13T03:04:57.414Z,49.02
2018-05-13T03:05:57.424Z,49.6
2018-05-13T03:06:57.468Z,49.12
2018-05-13T03:07:57.480Z,48.93
2018-05-13T03:08:57.241Z,49.02
2018-05-13T03:09:57.529Z,49.02
2018-05-13T03:10:57.529Z,49.12
2018-05-13T03:11:57.562Z,49.02
2018-05-13T03:12:57.579Z,49.69
2018-05-13T03:13:57.344Z,48.93
2018-05-13T03:14:57.637Z,49.12
2018-05-13T03:15:57.666Z,49.51
2018-05-13T03:16:57.408Z,49.79
2018-05-13T03:17:57.704Z,49.51
2018-05-13T03:18:57.749Z,49.48
2018-05-13T03:19:57.748Z,49.31
2018-05-13T03:20:57.772Z,49.31
2018-05-13T03:21:57.791Z,49.31
2018-05-13T03:22:57.537Z,49.51
2018-05-13T03:23:57.559Z,49.51
2018-05-13T03:24:57.845Z,49.41
2018-05-13T03:25:57.868Z,49.41
2018-05-13T03:26:57.895Z,49.51
2018-05-13T03:27:57.926Z,49.38
2018-05-13T03:28:57.944Z,49.41
2018-05-13T03:29:57.969Z,49.99
2018-05-13T03:30:57.715Z,49.6
2018-05-13T03:31:58.009Z,49.77
2018-05-13T03:32:58.032Z,49.67
2018-05-13T03:33:57.781Z,49.87
2018-05-13T03:34:58.075Z,50.05
2018-05-13T03:35:58.087Z,49.96
2018-05-13T03:36:58.127Z,49.87
2018-05-13T03:37:58.138Z,49.77
2018-05-13T03:38:58.158Z,49.99
2018-05-13T03:39:58.260Z,49.87
2018-05-13T03:40:58.202Z,50.63
2018-05-13T03:41:57.957Z,49.87
2018-05-13T03:42:58.251Z,49.87
2018-05-13T03:43:58.271Z,49.87
2018-05-13T03:44:58.008Z,49.87
2018-05-13T03:45:58.301Z,49.87
2018-05-13T03:46:58.354Z,50.44
2018-05-13T03:47:58.345Z,50.63
2018-05-13T03:48:58.101Z,50.05
2018-05-13T03:49:58.131Z,49.77
2018-05-13T03:50:58.431Z,50.15
2018-05-13T03:51:58.449Z,50.25
2018-05-13T03:52:58.473Z,50.15
2018-05-13T03:53:58.479Z,50.15
2018-05-13T03:54:58.515Z,50.73
2018-05-13T03:55:58.541Z,50.15
2018-05-13T03:56:58.551Z,50.15
2018-05-13T03:57:58.570Z,50.63
2018-05-13T03:58:58.582Z,50.73
2018-05-13T03:59:58.631Z,50.44
2018-05-13T04:00:58.644Z,49.87
2018-05-13T04:01:58.653Z,50.92
2018-05-13T04:02:58.691Z,50.34
2018-05-13T04:03:58.430Z,50.73
2018-05-13T04:04:58.716Z,50.63
2018-05-13T04:05:58.735Z,50.73
2018-05-13T04:06:58.775Z,50.73
2018-05-13T04:07:58.785Z,50.73
2018-05-13T04:08:58.800Z,51.02
2018-05-13T04:09:58.838Z,51.02
2018-05-13T04:10:58.864Z,50.73
2018-05-13T04:11:58.872Z,50.63
2018-05-13T04:12:58.641Z,51.21
2018-05-13T04:13:58.930Z,50.92
2018-05-13T04:14:58.948Z,51.4
2018-05-13T04:15:58.697Z,50.92
2018-05-13T04:16:59.006Z,51.31
2018-05-13T04:17:59.010Z,51.21
2018-05-13T04:18:59.054Z,51.02
2018-05-13T04:19:59.042Z,51.31
2018-05-13T04:20:58.802Z,51.5
2018-05-13T04:21:59.091Z,51.79
2018-05-13T04:22:58.838Z,51.31
2018-05-13T04:23:59.142Z,51.69
2018-05-13T04:24:59.153Z,51.69
2018-05-13T04:25:59.172Z,51.69
2018-05-13T04:26:58.924Z,51.79
2018-05-13T04:27:58.976Z,51.69
2018-05-13T04:28:59.257Z,52.17
2018-05-13T04:29:59.263Z,52.55
2018-05-13T04:30:59.299Z,52.36
2018-05-13T04:31:59.302Z,52.55
2018-05-13T04:32:59.334Z,52.65
2018-05-13T04:33:59.360Z,52.55
2018-05-13T04:34:59.369Z,52.26
2018-05-13T04:35:59.394Z,52.75
2018-05-13T04:36:59.426Z,52.55
2018-05-13T04:37:59.442Z,52.55
2018-05-13T04:38:59.201Z,52.84
2018-05-13T04:39:59.214Z,52.65
2018-05-13T04:40:59.514Z,52.55
2018-05-13T04:41:59.522Z,53.03
2018-05-13T04:42:59.537Z,52.75
2018-05-13T04:43:59.297Z,52.94
2018-05-13T04:44:59.588Z,53.13
2018-05-13T04:45:59.613Z,53.03
2018-05-13T04:46:59.649Z,52.94
2018-05-13T04:47:59.377Z,53.52
2018-05-13T04:48:59.401Z,53.03
2018-05-13T04:49:59.709Z,52.84
2018-05-13T04:50:59.454Z,52.94
2018-05-13T04:51:59.474Z,53.7
2018-05-13T04:52:59.761Z,53.61
2018-05-13T04:53:59.783Z,53.61
2018-05-13T04:54:59.825Z,53.9
2018-05-13T04:55:59.582Z,54.12
2018-05-13T04:56:59.859Z,54.28
2018-05-13T04:57:59.611Z,54.41
2018-05-13T04:58:59.888Z,54.28
2018-05-13T04:59:59.913Z,54.96
2018-05-13T05:00:59.946Z,54.22
2018-05-13T05:01:59.952Z,54.96
2018-05-13T05:02:59.974Z,54.09
2018-05-13T05:03:59.994Z,54.38
2018-05-13T05:05:00.030Z,54.22
2018-05-13T05:06:00.041Z,54.5
2018-05-13T05:07:00.065Z,54.28
2018-05-13T05:08:00.082Z,55.15
2018-05-13T05:09:00.349Z,54.89
2018-05-13T05:10:00.138Z,54.69
2018-05-13T05:11:00.155Z,55.18
2018-05-13T05:12:00.178Z,54.79
2018-05-13T05:13:00.211Z,55.76
2018-05-13T05:14:00.214Z,55.37
2018-05-13T05:15:00.248Z,55.37
2018-05-13T05:16:00.279Z,55.66
2018-05-13T05:17:00.295Z,55.76
2018-05-13T05:18:00.315Z,55.66
2018-05-13T05:19:00.320Z,55.46
2018-05-13T05:20:00.349Z,56.04
2018-05-13T05:21:00.108Z,56.14
2018-05-13T05:22:00.383Z,55.76
2018-05-13T05:23:00.408Z,55.85
2018-05-13T05:24:00.448Z,55.66
2018-05-13T05:25:00.471Z,56.04
2018-05-13T05:26:00.493Z,56.04
2018-05-13T05:27:00.505Z,56.23
2018-05-13T05:28:00.711Z,56.04
2018-05-13T05:29:00.541Z,55.46
2018-05-13T05:30:00.584Z,56.14
2018-05-13T05:31:00.317Z,55.85
2018-05-13T05:32:00.619Z,56.23
2018-05-13T05:33:00.358Z,55.85
2018-05-13T05:34:00.654Z,56.04
2018-05-13T05:35:00.407Z,55.76
2018-05-13T05:36:00.721Z,55.66
2018-05-13T05:37:00.711Z,55.46
2018-05-13T05:38:00.479Z,55.56
2018-05-13T05:39:00.775Z,55.85
2018-05-13T05:40:00.775Z,55.27
2018-05-13T05:41:00.804Z,55.66
2018-05-13T05:42:00.564Z,56.14
2018-05-13T05:43:00.860Z,56.14
2018-05-13T05:44:00.884Z,55.85
2018-05-13T05:45:00.888Z,56.62
2018-05-13T05:46:00.919Z,56.33
2018-05-13T05:47:00.938Z,56.33
2018-05-13T05:48:00.978Z,57.39
2018-05-13T05:49:00.987Z,56.33
2018-05-13T05:50:01.002Z,56.81
2018-05-13T05:51:01.028Z,56.71
2018-05-13T05:52:01.043Z,57.68
2018-05-13T05:53:01.059Z,56.91
2018-05-13T05:54:01.091Z,57.48
2018-05-13T05:55:01.106Z,57.1
2018-05-13T05:56:01.128Z,57.1
2018-05-13T05:57:01.162Z,57.42
2018-05-13T05:58:01.190Z,57.42
2018-05-13T05:59:01.197Z,57.1
2018-05-13T06:00:01.238Z,57.22
2018-05-13T06:01:01.256Z,57.8
2018-05-13T06:02:01.272Z,57.6
2018-05-13T06:03:01.027Z,56.74
2018-05-13T06:04:01.301Z,56.93
2018-05-13T06:05:01.328Z,56.74
2018-05-13T06:06:01.350Z,56.26
2018-05-13T06:07:01.384Z,56.55
2018-05-13T06:08:01.131Z,55.98
2018-05-13T06:09:01.158Z,56.16
2018-05-13T06:10:01.448Z,55.78
2018-05-13T06:11:01.467Z,55.98
2018-05-13T06:12:01.492Z,55.78
2018-05-13T06:13:01.241Z,55.78
2018-05-13T06:14:01.517Z,55.59
2018-05-13T06:15:01.559Z,55.98
2018-05-13T06:16:01.314Z,55.88
2018-05-13T06:17:01.332Z,55.88
2018-05-13T06:18:01.609Z,55.81
2018-05-13T06:19:01.385Z,55.98
2018-05-13T06:20:01.653Z,55.43
2018-05-13T06:21:01.673Z,55.43
2018-05-13T06:22:01.713Z,55.23
2018-05-13T06:23:01.458Z,55.43
2018-05-13T06:24:01.488Z,55.23
2018-05-13T06:25:01.782Z,55.43
2018-05-13T06:26:01.516Z,55.9
2018-05-13T06:27:01.821Z,55.81
2018-05-13T06:28:01.845Z,55.71
2018-05-13T06:29:01.866Z,55.43
2018-05-13T06:30:01.898Z,56
2018-05-13T06:31:01.628Z,56.2
2018-05-13T06:32:02.041Z,55.81
2018-05-13T06:33:01.956Z,55.81
2018-05-13T06:34:01.979Z,56.1
2018-05-13T06:35:02.007Z,55.23
2018-05-13T06:36:02.004Z,55.71
2018-05-13T06:37:02.025Z,55.81
2018-05-13T06:38:02.058Z,55.71
2018-05-13T06:39:02.083Z,55.43
2018-05-13T06:40:01.830Z,55.55
2018-05-13T06:41:02.118Z,55.71
2018-05-13T06:42:02.154Z,55.16
2018-05-13T06:43:02.173Z,55.07
2018-05-13T06:44:02.196Z,55.65
2018-05-13T06:45:02.227Z,55.83
2018-05-13T06:46:02.231Z,55.83
2018-05-13T06:47:02.262Z,55.35
2018-05-13T06:48:02.269Z,55.26
2018-05-13T06:49:02.294Z,55.65
2018-05-13T06:50:02.317Z,55.55
2018-05-13T06:51:02.621Z,55.16
2018-05-13T06:52:02.380Z,55.07
2018-05-13T06:53:02.397Z,54.87
2018-05-13T06:54:02.428Z,55.45
2018-05-13T06:55:02.487Z,55.35
2018-05-13T06:56:02.474Z,55.29
2018-05-13T06:57:02.490Z,55.29
2018-05-13T06:58:02.498Z,55.29
2018-05-13T06:59:02.524Z,54.71
2018-05-13T07:00:02.542Z,54.32
2018-05-13T07:01:02.298Z,53.07
2018-05-13T07:02:02.320Z,53.36
2018-05-13T07:03:02.604Z,54.13
2018-05-13T07:04:02.628Z,53.94
2018-05-13T07:05:02.646Z,53.96
2018-05-13T07:06:02.697Z,53.36
2018-05-13T07:07:02.708Z,53.09
2018-05-13T07:08:02.720Z,53.17
2018-05-13T07:09:02.757Z,53.58
2018-05-13T07:10:02.776Z,53.09
2018-05-13T07:11:02.798Z,53.87
2018-05-13T07:12:02.810Z,53.96
2018-05-13T07:13:02.564Z,53.58
2018-05-13T07:14:02.867Z,53.29
2018-05-13T07:15:02.628Z,53.31
2018-05-13T07:16:02.940Z,53.61
2018-05-13T07:17:02.925Z,53.99
2018-05-13T07:18:02.946Z,53.89
2018-05-13T07:19:02.990Z,53.41
2018-05-13T07:20:03.002Z,53.99
2018-05-13T07:21:03.023Z,54.02
2018-05-13T07:22:03.051Z,54.21
2018-05-13T07:23:03.058Z,53.53
2018-05-13T07:24:03.090Z,53.15
2018-05-13T07:25:02.848Z,52.95
2018-05-13T07:26:02.878Z,53.15
2018-05-13T07:27:02.878Z,53.05
2018-05-13T07:28:02.941Z,52.67
2018-05-13T07:29:03.208Z,52.5
2018-05-13T07:30:03.225Z,51.92
2018-05-13T07:31:02.983Z,51.44
2018-05-13T07:32:03.291Z,51.63
2018-05-13T07:33:03.281Z,51.44
2018-05-13T07:34:03.317Z,52.14
2018-05-13T07:35:03.329Z,51.75
2018-05-13T07:36:03.105Z,51.27
2018-05-13T07:37:03.389Z,51.07
2018-05-13T07:38:03.414Z,51.46
2018-05-13T07:39:03.437Z,51.29
2018-05-13T07:40:03.190Z,51.01
2018-05-13T07:41:03.472Z,50.43
2018-05-13T07:42:03.500Z,50.62
2018-05-13T07:43:03.256Z,50.43
2018-05-13T07:44:03.557Z,50.13
2018-05-13T07:45:03.582Z,50.43
2018-05-13T07:46:03.324Z,49.87
2018-05-13T07:47:03.353Z,49.77
2018-05-13T07:48:03.648Z,49.77
2018-05-13T07:49:03.667Z,49.49
2018-05-13T07:50:03.434Z,49.49
2018-05-13T07:51:03.622Z,49.41
2018-05-13T07:52:03.732Z,49.22
2018-05-13T07:53:03.759Z,48.64
2018-05-13T07:54:03.506Z,48.83
2018-05-13T07:55:03.816Z,48.83
2018-05-13T07:56:03.566Z,48.93
2018-05-13T07:57:03.859Z,48.66
2018-05-13T07:58:03.596Z,48.37
2018-05-13T07:59:03.900Z,48.27
2018-05-13T08:00:03.912Z,48.66
2018-05-13T08:01:03.949Z,48.08
2018-05-13T08:02:03.978Z,47.79
2018-05-13T08:03:04.013Z,48.08
2018-05-13T08:04:03.755Z,48.01
2018-05-13T08:05:04.048Z,47.52
2018-05-13T08:06:03.870Z,47.62
2018-05-13T08:07:04.094Z,47.04
2018-05-13T08:08:03.838Z,46.87
2018-05-13T08:09:04.136Z,46.58
2018-05-13T08:10:04.174Z,46.39
2018-05-13T08:11:03.920Z,46.48
2018-05-13T08:12:03.935Z,46.19
2018-05-13T08:13:04.076Z,46.09
2018-05-13T08:14:04.014Z,45.71
2018-05-13T08:15:04.277Z,45.83
2018-05-13T08:16:04.029Z,45.73
2018-05-13T08:17:04.332Z,45.64
2018-05-13T08:18:04.089Z,45.34
2018-05-13T08:19:04.375Z,45.15
2018-05-13T08:20:04.407Z,44.78
2018-05-13T08:21:04.448Z,44.68
2018-05-13T08:22:04.187Z,44.49
2018-05-13T08:23:04.465Z,44.78
2018-05-13T08:24:04.234Z,44.4
2018-05-13T08:25:04.247Z,44.3
2018-05-13T08:26:04.279Z,43.72
2018-05-13T08:27:04.584Z,43.54
2018-05-13T08:28:04.588Z,43.35
2018-05-13T08:29:04.344Z,42.96
2018-05-13T08:30:04.395Z,42.99
2018-05-13T08:31:04.404Z,42.69
2018-05-13T08:32:04.696Z,42.5
2018-05-13T08:33:04.736Z,42.6
2018-05-13T08:34:04.753Z,42.03
2018-05-13T08:35:04.783Z,41.94
2018-05-13T08:36:04.518Z,41.45
2018-05-13T08:37:04.549Z,41.45
2018-05-13T08:38:04.583Z,41.45
2018-05-13T08:39:04.598Z,41.55
2018-05-13T08:40:04.889Z,41.28
2018-05-13T08:41:04.644Z,40.79
2018-05-13T08:42:04.938Z,40.6
2018-05-13T08:43:04.705Z,40.41
2018-05-13T08:44:05.000Z,40.31
2018-05-13T08:45:05.030Z,40.03
2018-05-13T08:46:05.054Z,40.13
2018-05-13T08:47:04.795Z,39.94
2018-05-13T08:48:05.106Z,38.96
2018-05-13T08:49:05.127Z,39.28
2018-05-13T08:50:05.161Z,39.08
2018-05-13T08:51:04.911Z,38.7
2018-05-13T08:52:05.201Z,38.11
2018-05-13T08:53:04.963Z,38.7
2018-05-13T08:54:05.483Z,37.82
2018-05-13T08:55:05.015Z,37.74
2018-05-13T08:56:05.299Z,38.4
2018-05-13T08:57:05.328Z,37.84
2018-05-13T08:58:05.368Z,38.52
2018-05-13T08:59:05.113Z,38.13
2018-05-13T09:00:05.416Z,38.23
2018-05-13T09:01:05.166Z,38.13
2018-05-13T09:02:05.194Z,37.18
2018-05-13T09:03:05.485Z,36.88
2018-05-13T09:04:05.244Z,36.79
2018-05-13T09:05:05.279Z,36.79
2018-05-13T09:06:05.556Z,36.49
2018-05-13T09:07:05.603Z,36.59
2018-05-13T09:08:05.624Z,36.71
2018-05-13T09:09:05.645Z,36.8
2018-05-13T09:10:05.662Z,36.51
2018-05-13T09:11:05.427Z,36.02
2018-05-13T09:12:05.733Z,35.75
2018-05-13T09:13:05.732Z,34.88
2018-05-13T09:14:05.986Z,34.58
2018-05-13T09:15:05.802Z,34.09
2018-05-13T09:16:05.564Z,34.11
2018-05-13T09:17:05.854Z,34.11
2018-05-13T09:18:05.600Z,33.53
2018-05-13T09:19:05.928Z,33.43
2018-05-13T09:20:05.670Z,33.72
2018-05-13T09:21:05.966Z,33.43
2018-05-13T09:22:05.722Z,33.73
2018-05-13T09:23:06.019Z,32.57
2018-05-13T09:24:06.064Z,32.76
2018-05-13T09:25:06.075Z,32.57
2018-05-13T09:26:06.291Z,33.06
2018-05-13T09:27:06.123Z,32.29
2018-05-13T09:28:06.150Z,32.29
2018-05-13T09:29:06.179Z,32.09
2018-05-13T09:30:06.207Z,31.72
2018-05-13T09:31:05.964Z,31.04
2018-05-13T09:32:05.992Z,30.45
2018-05-13T09:33:06.443Z,30.55
2018-05-13T09:34:06.048Z,30.74
2018-05-13T09:35:06.326Z,30.74
2018-05-13T09:36:06.359Z,30.37
2018-05-13T09:37:06.114Z,30.08
2018-05-13T09:38:06.418Z,29.98
2018-05-13T09:39:06.442Z,30.27
2018-05-13T09:40:06.212Z,29.98
2018-05-13T09:41:06.514Z,29.59
2018-05-13T09:42:06.538Z,29.41
2018-05-13T09:43:06.299Z,29.02
2018-05-13T09:44:06.597Z,28.82
2018-05-13T09:45:06.339Z,29.11
2018-05-13T09:46:06.633Z,29.02
2018-05-13T09:47:06.678Z,29.21
2018-05-13T09:48:06.688Z,28.82
2018-05-13T09:49:06.463Z,29.13
2018-05-13T09:50:06.758Z,28.64
2018-05-13T09:51:06.784Z,28.25
2018-05-13T09:52:06.808Z,27.95
2018-05-13T09:53:06.564Z,28.05
2018-05-13T09:54:06.589Z,27.76
2018-05-13T09:55:06.884Z,27.48
2018-05-13T09:56:06.914Z,27.56
2018-05-13T09:57:06.951Z,27.28
2018-05-13T09:58:06.976Z,27.38
2018-05-13T09:59:06.745Z,27.48
2018-05-13T10:00:07.047Z,27.67
2018-05-13T10:01:07.073Z,27.67
2018-05-13T10:02:07.087Z,27.39
2018-05-13T10:03:07.131Z,27.29
2018-05-13T10:04:07.252Z,27.29
2018-05-13T10:05:06.902Z,27
2018-05-13T10:06:07.203Z,26.51
2018-05-13T10:07:07.232Z,26.71
2018-05-13T10:08:07.261Z,26.9
2018-05-13T10:09:07.288Z,26.81
2018-05-13T10:10:07.324Z,25.74
2018-05-13T10:11:07.362Z,26.14
2018-05-13T10:12:07.385Z,26.04
2018-05-13T10:13:07.397Z,25.84
2018-05-13T10:14:07.430Z,25.45
2018-05-13T10:15:07.210Z,25.55
2018-05-13T10:16:07.506Z,25.37
2018-05-13T10:17:07.531Z,25.27
2018-05-13T10:18:07.554Z,25.27
2018-05-13T10:19:07.305Z,25.37
2018-05-13T10:20:07.629Z,25.56
2018-05-13T10:21:07.637Z,25.37
2018-05-13T10:22:07.410Z,25.17
2018-05-13T10:23:07.701Z,24.38
2018-05-13T10:24:07.739Z,24.29
2018-05-13T10:25:07.754Z,24.69
2018-05-13T10:26:07.797Z,24.3
2018-05-13T10:27:07.858Z,24.2
2018-05-13T10:28:07.856Z,24.3
2018-05-13T10:29:07.883Z,24.3
2018-05-13T10:30:07.894Z,24.4
2018-05-13T10:31:07.929Z,23.92
2018-05-13T10:32:07.689Z,24.1
2018-05-13T10:33:07.992Z,23.91
2018-05-13T10:34:08.013Z,23.53
2018-05-13T10:35:08.048Z,23.43
2018-05-13T10:36:08.085Z,23.23
2018-05-13T10:37:07.837Z,22.74
2018-05-13T10:38:08.233Z,22.55
2018-05-13T10:39:08.208Z,22.25
2018-05-13T10:40:08.204Z,22.55
2018-05-13T10:41:08.237Z,22.64
2018-05-13T10:42:08.274Z,22.74
2018-05-13T10:43:08.031Z,22.74
2018-05-13T10:44:08.054Z,22.64
2018-05-13T10:45:08.094Z,22.56
2018-05-13T10:46:08.121Z,22.16
2018-05-13T10:47:08.621Z,22.36
2018-05-13T10:48:08.457Z,22.75
2018-05-13T10:49:08.465Z,22.66
2018-05-13T10:50:08.238Z,22.66
2018-05-13T10:51:08.558Z,22.75
2018-05-13T10:52:08.294Z,22.77
2018-05-13T10:53:08.331Z,22.17
2018-05-13T10:54:08.636Z,22.47
2018-05-13T10:55:08.391Z,22.17
2018-05-13T10:56:08.679Z,22.37
2018-05-13T10:57:08.728Z,21.69
2018-05-13T10:58:08.482Z,21.78
2018-05-13T10:59:08.792Z,22.28
2018-05-13T11:00:08.817Z,21.89
2018-05-13T11:01:08.836Z,21.4
2018-05-13T11:02:08.883Z,21.8
2018-05-13T11:03:08.634Z,21.59
2018-05-13T11:04:08.947Z,21.69
2018-05-13T11:05:08.970Z,22
2018-05-13T11:06:09.002Z,22
2018-05-13T11:07:08.756Z,21.41
2018-05-13T11:08:09.067Z,21.8
2018-05-13T11:09:09.089Z,21.8
2018-05-13T11:10:08.908Z,21.7
2018-05-13T11:11:09.154Z,21.51
2018-05-13T11:12:09.186Z,21.22
2018-05-13T11:13:08.941Z,21.33
2018-05-13T11:14:08.974Z,21.22
2018-05-13T11:15:09.273Z,20.83
2018-05-13T11:16:09.297Z,20.73
2018-05-13T11:17:09.449Z,20.54
2018-05-13T11:18:09.098Z,20.24
2018-05-13T11:19:09.132Z,19.75
2018-05-13T11:20:09.500Z,20.24
2018-05-13T11:21:09.457Z,20.64
2018-05-13T11:22:09.490Z,20.84
2018-05-13T11:23:09.516Z,21.04
2018-05-13T11:24:09.555Z,20.45
2018-05-13T11:25:09.584Z,20.64
2018-05-13T11:26:09.350Z,20.15
2018-05-13T11:27:09.376Z,20.94
2018-05-13T11:28:09.690Z,20.85
2018-05-13T11:29:09.712Z,20.95
2018-05-13T11:30:09.481Z,20.95
2018-05-13T11:31:09.770Z,20.95
2018-05-13T11:32:09.879Z,20.75
2018-05-13T11:33:09.582Z,20.65
2018-05-13T11:34:09.871Z,20.75
2018-05-13T11:35:09.641Z,21.05
2018-05-13T11:36:09.931Z,20.95
2018-05-13T11:37:09.987Z,21.36
2018-05-13T11:38:10.002Z,21.25
2018-05-13T11:39:10.025Z,21.05
2018-05-13T11:40:10.071Z,20.86
2018-05-13T11:41:10.092Z,20.96
2018-05-13T11:42:10.138Z,21.15
2018-05-13T11:43:10.175Z,20.76
2018-05-13T11:44:10.207Z,20.86
2018-05-13T11:45:10.234Z,20.76
2018-05-13T11:46:10.252Z,20.86
2018-05-13T11:47:10.289Z,20.76
2018-05-13T11:48:10.341Z,20.86
2018-05-13T11:49:10.354Z,20.96
2018-05-13T11:50:10.118Z,20.17
2018-05-13T11:51:10.409Z,20.67
2018-05-13T11:52:10.466Z,20.57
2018-05-13T11:53:10.494Z,19.79
2018-05-13T11:54:10.262Z,19.3
2018-05-13T11:55:10.548Z,19.3
2018-05-13T11:56:10.591Z,19.3
2018-05-13T11:57:10.607Z,19.59
2018-05-13T11:58:10.644Z,19
2018-05-13T11:59:10.680Z,18.8
2018-05-13T12:00:10.445Z,18.41
2018-05-13T12:01:10.761Z,18.51
2018-05-13T12:02:10.866Z,18.51
2018-05-13T12:03:10.543Z,18.31
2018-05-13T12:04:10.859Z,18.71
2018-05-13T12:05:10.892Z,18.9
2018-05-13T12:06:10.916Z,18.51
2018-05-13T12:07:10.945Z,18.71
2018-05-13T12:08:10.716Z,17.93
2018-05-13T12:09:11.008Z,17.43
2018-05-13T12:10:10.767Z,17.33
2018-05-13T12:11:11.081Z,17.43
2018-05-13T12:12:11.102Z,17.14
2018-05-13T12:13:10.871Z,16.94
2018-05-13T12:14:10.909Z,16.85
2018-05-13T12:15:11.386Z,16.94
2018-05-13T12:16:10.964Z,16.64
2018-05-13T12:17:11.272Z,16.94
2018-05-13T12:18:11.298Z,17.04
2018-05-13T12:19:11.349Z,16.25
2018-05-13T12:20:11.387Z,16.55
2018-05-13T12:21:11.508Z,16.35
2018-05-13T12:22:11.435Z,16.94
2018-05-13T12:23:11.482Z,16.55
2018-05-13T12:24:11.497Z,16.85
2018-05-13T12:25:11.550Z,16.64
2018-05-13T12:26:11.654Z,16.85
2018-05-13T12:27:11.687Z,16.94
2018-05-13T12:28:11.639Z,16.74
2018-05-13T12:29:11.685Z,16.55
2018-05-13T12:30:11.714Z,16.94
2018-05-13T12:31:11.469Z,16.95
2018-05-13T12:32:11.500Z,16.85
2018-05-13T12:33:11.817Z,16.85
2018-05-13T12:34:11.829Z,16.66
2018-05-13T12:35:11.865Z,16.46
2018-05-13T12:36:11.905Z,16.55
2018-05-13T12:37:11.664Z,16.55
2018-05-13T12:38:11.963Z,16.26
2018-05-13T12:39:11.745Z,16.66
2018-05-13T12:40:12.049Z,16.85
2018-05-13T12:41:11.807Z,16.36
2018-05-13T12:42:12.099Z,16.36
2018-05-13T12:43:12.152Z,16.56
2018-05-13T12:44:12.181Z,16.66
2018-05-13T12:45:11.941Z,16.66
2018-05-13T12:46:12.240Z,16.17
2018-05-13T12:47:11.997Z,16.17
2018-05-13T12:48:12.318Z,15.97
2018-05-13T12:49:12.359Z,15.48
2018-05-13T12:50:12.536Z,15.58
2018-05-13T12:51:12.426Z,15.28
2018-05-13T12:52:12.439Z,15.38
2018-05-13T12:53:12.210Z,15.08
2018-05-13T12:54:12.523Z,14.69
2018-05-13T12:55:12.549Z,14.98
2018-05-13T12:56:12.726Z,14.89